createdAt,value
2018-10-02T00:00:14.386Z,7.10
2018-10-02T00:02:42.914Z,7.20
2018-10-02T00:05:11.465Z,7.30
2018-10-02T00:07:39.971Z,7.10
2018-10-02T00:10:08.642Z,7.10
2018-10-02T00:12:42.441Z,7.10
2018-10-02T00:15:10.976Z,7.30
2018-10-02T00:17:39.564Z,7.20
2018-10-02T00:20:08.124Z,7.20
2018-10-02T00:22:36.606Z,7.00
2018-10-02T00:25:05.721Z,7.00
2018-10-02T00:27:34.219Z,7.10
2018-10-02T00:30:02.758Z,7.10
2018-10-02T00:32:31.285Z,7.10
2018-10-02T00:34:59.845Z,7.10
2018-10-02T00:37:28.440Z,7.00
2018-10-02T00:39:56.995Z,6.80
2018-10-02T00:42:25.503Z,6.80
2018-10-02T00:44:54.045Z,6.80
2018-10-02T00:47:22.559Z,6.80
2018-10-02T00:49:51.061Z,6.80
2018-10-02T00:52:19.609Z,6.80
2018-10-02T00:54:48.114Z,6.80
2018-10-02T00:57:16.634Z,6.80
2018-10-02T00:59:45.997Z,6.90
2018-10-02T01:02:14.613Z,6.90
2018-10-02T01:04:43.109Z,6.80
2018-10-02T01:07:11.582Z,6.70
2018-10-02T01:09:40.087Z,6.50
2018-10-02T01:12:08.605Z,6.40
2018-10-02T01:14:37.131Z,6.50
2018-10-02T01:17:05.655Z,6.40
2018-10-02T01:19:34.224Z,6.50
2018-10-02T01:22:02.748Z,6.20
2018-10-02T01:24:32.045Z,6.10
2018-10-02T01:27:00.582Z,6.30
2018-10-02T01:29:29.071Z,6.20
2018-10-02T01:31:57.566Z,6.30
2018-10-02T01:34:26.051Z,6.10
2018-10-02T01:36:54.625Z,6.20
2018-10-02T01:39:23.140Z,6.10
2018-10-02T01:41:51.646Z,6.10
2018-10-02T01:44:20.139Z,6.00
2018-10-02T01:46:48.722Z,6.00
2018-10-02T01:49:17.243Z,5.80
2018-10-02T01:51:45.780Z,6.00
2018-10-02T01:54:16.492Z,5.90
2018-10-02T01:56:45.036Z,5.90
2018-10-02T01:59:13.510Z,5.90
2018-10-02T02:01:42.097Z,5.90
2018-10-02T02:04:10.594Z,5.80
2018-10-02T02:06:39.119Z,5.70
2018-10-02T02:09:11.910Z,5.70
2018-10-02T02:11:40.485Z,5.70
2018-10-02T02:14:08.976Z,5.80
2018-10-02T02:16:37.521Z,5.70
2018-10-02T02:19:06.063Z,5.70
2018-10-02T02:21:34.622Z,5.70
2018-10-02T02:24:03.152Z,5.70
2018-10-02T02:26:31.632Z,5.50
2018-10-02T02:29:00.131Z,5.30
2018-10-02T02:31:28.713Z,5.50
2018-10-02T02:33:57.235Z,5.50
2018-10-02T02:36:25.699Z,5.40
2018-10-02T02:38:54.244Z,5.50
2018-10-02T02:41:22.787Z,5.40
2018-10-02T02:43:51.268Z,5.40
2018-10-02T02:46:19.786Z,5.10
2018-10-02T02:48:53.606Z,5.30
2018-10-02T02:51:26.366Z,5.20
2018-10-02T02:53:54.852Z,5.10
2018-10-02T02:56:23.356Z,5.10
2018-10-02T02:58:51.937Z,5.10
2018-10-02T03:01:20.483Z,5.20
2018-10-02T03:03:49.070Z,5.20
2018-10-02T03:06:17.537Z,5.20
2018-10-02T03:08:46.209Z,5.20
2018-10-02T03:11:14.752Z,5.20
2018-10-02T03:13:43.255Z,5.20
2018-10-02T03:16:11.911Z,4.90
2018-10-02T03:18:40.390Z,4.90
2018-10-02T03:21:08.922Z,5.00
2018-10-02T03:23:37.421Z,5.00
2018-10-02T03:26:05.905Z,5.20
2018-10-02T03:28:34.499Z,5.20
2018-10-02T03:31:03.180Z,5.30
2018-10-02T03:33:31.792Z,5.30
2018-10-02T03:36:00.372Z,4.90
2018-10-02T03:38:28.964Z,4.80
2018-10-02T03:40:57.433Z,4.60
2018-10-02T03:43:26.236Z,4.70
2018-10-02T03:45:54.796Z,4.60
2018-10-02T03:48:23.336Z,4.40
2018-10-02T03:50:51.867Z,4.20
2018-10-02T03:53:20.447Z,4.40
2018-10-02T03:55:48.971Z,4.40
2018-10-02T03:58:17.587Z,4.30
2018-10-02T04:00:46.157Z,4.30
2018-10-02T04:03:14.778Z,4.40
2018-10-02T04:05:43.343Z,4.60
2018-10-02T04:08:11.898Z,4.60
2018-10-02T04:10:40.453Z,4.70
2018-10-02T04:13:09.053Z,4.70
2018-10-02T04:15:37.557Z,4.80
2018-10-02T04:18:13.686Z,4.60
2018-10-02T04:20:42.279Z,4.70
2018-10-02T04:23:10.837Z,4.60
2018-10-02T04:25:39.296Z,4.70
2018-10-02T04:28:07.841Z,4.70
2018-10-02T04:30:36.357Z,4.70
2018-10-02T04:33:04.858Z,4.50
2018-10-02T04:35:33.406Z,4.60
2018-10-02T04:38:01.929Z,4.80
2018-10-02T04:40:30.362Z,4.70
2018-10-02T04:42:58.880Z,4.70
2018-10-02T04:45:27.369Z,4.60
2018-10-02T04:47:55.916Z,4.60
2018-10-02T04:50:25.509Z,4.60
2018-10-02T04:52:54.565Z,4.60
2018-10-02T04:55:23.447Z,4.70
2018-10-02T04:57:52.032Z,4.70
2018-10-02T05:00:20.611Z,4.60
2018-10-02T05:02:49.193Z,4.70
2018-10-02T05:05:18.044Z,4.80
2018-10-02T05:07:46.627Z,4.70
2018-10-02T05:10:15.193Z,4.70
2018-10-02T05:12:43.764Z,4.70
2018-10-02T05:15:12.331Z,4.80
2018-10-02T05:17:40.848Z,4.80
2018-10-02T05:20:09.444Z,4.70
2018-10-02T05:22:38.386Z,4.60
2018-10-02T05:25:06.947Z,4.60
2018-10-02T05:27:35.546Z,4.70
2018-10-02T05:30:04.100Z,4.50
2018-10-02T05:32:32.750Z,4.80
2018-10-02T05:35:01.556Z,4.60
2018-10-02T05:37:30.040Z,4.60
2018-10-02T05:39:58.632Z,4.80
2018-10-02T05:42:27.330Z,4.70
2018-10-02T05:44:55.915Z,4.90
2018-10-02T05:47:24.505Z,4.90
2018-10-02T05:49:53.033Z,5.10
2018-10-02T05:52:21.798Z,5.10
2018-10-02T05:54:50.567Z,5.30
2018-10-02T05:57:19.227Z,5.20
2018-10-02T05:59:47.847Z,5.00
2018-10-02T06:02:16.683Z,5.10
2018-10-02T06:04:45.427Z,5.10
2018-10-02T06:07:14.093Z,5.10
2018-10-02T06:09:42.643Z,5.10
2018-10-02T06:12:11.187Z,5.30
2018-10-02T06:14:39.738Z,5.30
2018-10-02T06:17:08.377Z,5.30
2018-10-02T06:19:36.944Z,5.20
2018-10-02T06:22:05.493Z,5.30
2018-10-02T06:24:34.025Z,5.30
2018-10-02T06:27:02.544Z,5.30
2018-10-02T06:29:31.120Z,5.30
2018-10-02T06:31:59.602Z,5.40
2018-10-02T06:34:28.071Z,5.40
2018-10-02T06:36:58.630Z,5.40
2018-10-02T06:39:28.976Z,5.40
2018-10-02T06:41:57.945Z,5.50
2018-10-02T06:44:26.528Z,5.60
2018-10-02T06:46:55.082Z,5.70
2018-10-02T06:49:23.714Z,5.80
2018-10-02T06:51:52.298Z,5.80
2018-10-02T06:54:20.749Z,5.90
2018-10-02T06:56:49.325Z,6.10
2018-10-02T06:59:17.896Z,6.30
2018-10-02T07:01:46.397Z,6.20
2018-10-02T07:04:14.965Z,6.30
2018-10-02T07:06:43.739Z,6.30
2018-10-02T07:09:15.054Z,6.40
2018-10-02T07:11:43.816Z,6.60
2018-10-02T07:14:12.325Z,6.60
2018-10-02T07:16:40.866Z,6.60
2018-10-02T07:19:09.423Z,6.70
2018-10-02T07:21:37.993Z,6.90
2018-10-02T07:24:06.820Z,6.90
2018-10-02T07:26:35.535Z,7.00
2018-10-02T07:29:04.114Z,7.20
2018-10-02T07:31:32.746Z,7.30
2018-10-02T07:34:01.345Z,7.50
2018-10-02T07:36:29.957Z,7.50
2018-10-02T07:38:58.457Z,7.60
2018-10-02T07:41:27.114Z,7.80
2018-10-02T07:43:55.653Z,7.90
2018-10-02T07:46:24.201Z,8.20
2018-10-02T07:48:52.734Z,8.30
2018-10-02T07:51:21.236Z,8.40
2018-10-02T07:53:49.778Z,8.30
2018-10-02T07:56:18.320Z,8.30
2018-10-02T07:58:46.837Z,8.30
2018-10-02T08:01:15.327Z,8.40
2018-10-02T08:03:43.838Z,8.40
2018-10-02T08:06:12.491Z,8.40
2018-10-02T08:08:41.148Z,8.40
2018-10-02T08:11:09.918Z,8.50
2018-10-02T08:13:38.486Z,8.40
2018-10-02T08:16:07.115Z,8.50
2018-10-02T08:18:35.663Z,8.50
2018-10-02T08:21:04.282Z,8.60
2018-10-02T08:23:32.791Z,8.60
2018-10-02T08:26:01.312Z,8.70
2018-10-02T08:28:29.842Z,8.80
2018-10-02T08:30:58.400Z,8.80
2018-10-02T08:33:27.197Z,8.90
2018-10-02T08:35:55.789Z,9.10
2018-10-02T08:38:24.931Z,9.20
2018-10-02T08:40:53.494Z,9.20
2018-10-02T08:43:22.014Z,9.40
2018-10-02T08:45:51.663Z,9.40
2018-10-02T08:48:20.205Z,9.60
2018-10-02T08:50:48.756Z,9.60
2018-10-02T08:53:23.584Z,9.60
2018-10-02T08:55:52.166Z,9.50
2018-10-02T08:58:20.724Z,9.50
2018-10-02T09:00:49.412Z,9.40
2018-10-02T09:03:18.046Z,9.40
2018-10-02T09:05:46.488Z,9.40
2018-10-02T09:08:15.011Z,9.40
2018-10-02T09:10:43.561Z,9.50
2018-10-02T09:13:12.092Z,9.40
2018-10-02T09:15:40.666Z,9.40
2018-10-02T09:18:11.142Z,9.40
2018-10-02T09:20:39.672Z,9.40
2018-10-02T09:23:08.388Z,9.30
2018-10-02T09:25:36.911Z,9.30
2018-10-02T09:28:05.468Z,9.30
2018-10-02T09:30:39.195Z,9.40
2018-10-02T09:33:13.367Z,9.40
2018-10-02T09:35:47.036Z,9.50
2018-10-02T09:38:20.854Z,9.40
2018-10-02T09:40:54.591Z,9.40
2018-10-02T09:43:34.088Z,9.40
2018-10-02T09:46:02.717Z,9.50
2018-10-02T09:48:31.186Z,9.50
2018-10-02T09:50:59.788Z,9.50
2018-10-02T09:53:28.279Z,9.70
2018-10-02T09:55:56.889Z,9.70
2018-10-02T09:58:25.548Z,9.70
2018-10-02T10:00:59.482Z,9.80
2018-10-02T10:03:28.114Z,9.70
2018-10-02T10:05:56.665Z,9.80
2018-10-02T10:08:25.203Z,9.80
2018-10-02T10:10:53.773Z,9.70
2018-10-02T10:13:22.339Z,9.70
2018-10-02T10:15:50.962Z,9.50
2018-10-02T10:18:20.365Z,9.30
2018-10-02T10:20:48.943Z,9.30
2018-10-02T10:23:17.504Z,9.30
2018-10-02T10:25:45.995Z,9.30
2018-10-02T10:28:14.554Z,9.30
2018-10-02T10:30:43.151Z,9.30
2018-10-02T10:33:11.774Z,9.40
2018-10-02T10:35:40.209Z,9.40
2018-10-02T10:38:08.863Z,9.40
2018-10-02T10:40:37.443Z,9.60
2018-10-02T10:43:06.002Z,9.60
2018-10-02T10:45:34.574Z,9.60
2018-10-02T10:48:03.120Z,9.70
2018-10-02T10:50:31.703Z,9.90
2018-10-02T10:53:00.266Z,9.90
2018-10-02T10:55:31.327Z,9.80
2018-10-02T10:57:59.856Z,9.70
2018-10-02T11:00:28.430Z,9.60
2018-10-02T11:02:56.990Z,9.70
2018-10-02T11:05:25.463Z,9.70
2018-10-02T11:07:53.997Z,9.70
2018-10-02T11:10:22.533Z,9.70
2018-10-02T11:12:51.069Z,9.70
2018-10-02T11:15:20.722Z,9.70
2018-10-02T11:17:49.190Z,9.70
2018-10-02T11:20:20.319Z,9.70
2018-10-02T11:22:48.928Z,9.80
2018-10-02T11:25:17.567Z,9.90
2018-10-02T11:27:46.137Z,9.90
2018-10-02T11:30:14.704Z,9.90
2018-10-02T11:32:43.271Z,9.90
2018-10-02T11:35:11.767Z,10.00
2018-10-02T11:37:40.432Z,9.90
2018-10-02T11:40:08.902Z,9.90
2018-10-02T11:42:37.473Z,9.90
2018-10-02T11:45:14.018Z,9.90
2018-10-02T11:47:42.567Z,9.90
2018-10-02T11:50:11.337Z,9.80
2018-10-02T11:52:39.914Z,9.80
2018-10-02T11:55:08.412Z,9.70
2018-10-02T11:57:37.068Z,9.70
2018-10-02T12:00:13.273Z,9.70
2018-10-02T12:02:41.920Z,9.70
2018-10-02T12:05:10.063Z,9.70
2018-10-02T12:07:38.579Z,9.50
2018-10-02T12:10:07.294Z,9.50
2018-10-02T12:12:35.840Z,9.60
2018-10-02T12:15:04.916Z,9.60
2018-10-02T12:17:33.454Z,9.70
2018-10-02T12:20:02.127Z,9.70
2018-10-02T12:22:30.585Z,9.70
2018-10-02T12:24:59.209Z,9.60
2018-10-02T12:27:27.850Z,9.70
2018-10-02T12:29:56.417Z,9.70
2018-10-02T12:32:24.946Z,9.50
2018-10-02T12:34:53.525Z,9.40
2018-10-02T12:37:22.101Z,9.40
2018-10-02T12:39:50.661Z,9.30
2018-10-02T12:42:19.194Z,9.30
2018-10-02T12:44:47.774Z,9.20
2018-10-02T12:47:16.354Z,9.10
2018-10-02T12:49:44.955Z,9.10
2018-10-02T12:52:13.610Z,9.10
2018-10-02T12:54:42.184Z,9.10
2018-10-02T12:57:10.759Z,9.20
2018-10-02T12:59:39.316Z,9.20
2018-10-02T13:02:07.971Z,9.30
2018-10-02T13:04:36.579Z,9.20
2018-10-02T13:07:05.173Z,9.20
2018-10-02T13:09:33.749Z,9.20
2018-10-02T13:12:02.391Z,9.20
2018-10-02T13:14:31.138Z,9.20
2018-10-02T13:16:59.672Z,9.10
2018-10-02T13:19:28.316Z,9.20
2018-10-02T13:21:56.824Z,9.20
2018-10-02T13:24:25.380Z,9.20
2018-10-02T13:26:53.969Z,9.30
2018-10-02T13:29:22.551Z,9.30
2018-10-02T13:31:51.095Z,9.30
2018-10-02T13:34:19.716Z,9.30
2018-10-02T13:36:48.329Z,9.20
2018-10-02T13:39:16.915Z,9.30
2018-10-02T13:41:45.448Z,9.30
2018-10-02T13:44:14.009Z,9.40
2018-10-02T13:46:42.551Z,9.30
2018-10-02T13:49:11.047Z,9.20
2018-10-02T13:51:39.566Z,9.20
2018-10-02T13:54:12.694Z,9.30
2018-10-02T13:56:41.215Z,9.30
2018-10-02T13:59:09.854Z,9.30
2018-10-02T14:01:38.492Z,9.30
2018-10-02T14:04:07.076Z,9.30
2018-10-02T14:06:35.648Z,9.30
2018-10-02T14:09:13.166Z,9.30
2018-10-02T14:11:48.117Z,9.20
2018-10-02T14:14:16.664Z,9.30
2018-10-02T14:16:45.193Z,9.30
2018-10-02T14:19:13.691Z,9.30
2018-10-02T14:21:42.340Z,9.20
2018-10-02T14:24:10.884Z,9.30
2018-10-02T14:26:39.454Z,9.40
2018-10-02T14:29:08.006Z,9.30
2018-10-02T14:31:36.584Z,9.30
2018-10-02T14:34:05.121Z,9.30
2018-10-02T14:36:33.779Z,9.30
2018-10-02T14:39:02.408Z,9.20
2018-10-02T14:41:30.953Z,9.30
2018-10-02T14:43:59.518Z,9.20
2018-10-02T14:46:28.115Z,9.20
2018-10-02T14:48:56.716Z,9.30
2018-10-02T14:51:25.237Z,9.30
2018-10-02T14:53:54.671Z,9.30
2018-10-02T14:56:23.265Z,9.20
2018-10-02T14:58:51.815Z,9.20
2018-10-02T15:01:20.401Z,9.20
2018-10-02T15:03:48.970Z,9.20
2018-10-02T15:06:17.612Z,9.20
2018-10-02T15:08:46.126Z,9.30
2018-10-02T15:11:14.617Z,9.20
2018-10-02T15:13:43.176Z,9.20
2018-10-02T15:16:11.701Z,9.30
2018-10-02T15:18:40.270Z,9.20
2018-10-02T15:21:08.896Z,9.20
2018-10-02T15:23:37.486Z,9.20
2018-10-02T15:26:06.029Z,9.20
2018-10-02T15:28:34.518Z,9.20
2018-10-02T15:31:03.075Z,9.20
2018-10-02T15:33:31.596Z,9.30
2018-10-02T15:36:00.169Z,9.30
2018-10-02T15:38:28.821Z,9.30
2018-10-02T15:40:57.324Z,9.30
2018-10-02T15:43:25.830Z,9.30
2018-10-02T15:45:54.406Z,9.40
2018-10-02T15:48:22.923Z,9.40
2018-10-02T15:50:51.580Z,9.30
2018-10-02T15:53:20.187Z,9.40
2018-10-02T15:55:48.753Z,9.40
2018-10-02T15:58:17.378Z,9.30
2018-10-02T16:00:45.946Z,9.30
2018-10-02T16:03:14.474Z,9.40
2018-10-02T16:05:43.094Z,9.30
2018-10-02T16:08:11.635Z,9.30
2018-10-02T16:10:40.430Z,9.30
2018-10-02T16:13:09.029Z,9.30
2018-10-02T16:15:37.610Z,9.30
2018-10-02T16:18:12.118Z,9.30
2018-10-02T16:20:40.613Z,9.30
2018-10-02T16:23:09.187Z,9.30
2018-10-02T16:25:37.697Z,9.30
2018-10-02T16:28:06.395Z,9.30
2018-10-02T16:30:35.177Z,9.30
2018-10-02T16:33:03.707Z,9.30
2018-10-02T16:35:32.316Z,9.30
2018-10-02T16:38:01.035Z,9.30
2018-10-02T16:40:29.631Z,9.30
2018-10-02T16:42:58.266Z,9.30
2018-10-02T16:45:27.092Z,9.30
2018-10-02T16:47:55.712Z,9.20
2018-10-02T16:50:24.640Z,9.20
2018-10-02T16:52:53.420Z,9.20
2018-10-02T16:55:21.969Z,9.20
2018-10-02T16:57:50.515Z,9.30
2018-10-02T17:00:19.151Z,9.30
2018-10-02T17:02:47.760Z,9.40
2018-10-02T17:05:16.328Z,9.40
2018-10-02T17:07:44.911Z,9.40
2018-10-02T17:10:13.488Z,9.50
2018-10-02T17:12:42.027Z,9.50
2018-10-02T17:15:10.551Z,9.50
2018-10-02T17:17:39.167Z,9.50
2018-10-02T17:20:08.128Z,9.50
2018-10-02T17:22:36.681Z,9.60
2018-10-02T17:25:05.347Z,9.60
2018-10-02T17:27:33.915Z,9.60
2018-10-02T17:30:02.492Z,9.60
2018-10-02T17:32:31.078Z,9.60
2018-10-02T17:34:59.762Z,9.70
2018-10-02T17:37:28.293Z,9.70
2018-10-02T17:39:56.845Z,9.70
2018-10-02T17:42:25.376Z,9.80
2018-10-02T17:44:53.913Z,9.70
2018-10-02T17:47:22.516Z,9.80
2018-10-02T17:49:51.123Z,9.80
2018-10-02T17:52:19.726Z,9.90
2018-10-02T17:54:48.345Z,9.90
2018-10-02T17:57:16.892Z,9.80
2018-10-02T17:59:45.438Z,9.90
2018-10-02T18:02:13.985Z,9.90
2018-10-02T18:04:42.602Z,10.00
2018-10-02T18:07:11.308Z,10.00
2018-10-02T18:09:39.968Z,10.00
2018-10-02T18:12:08.627Z,10.00
2018-10-02T18:14:37.208Z,10.00
2018-10-02T18:17:05.874Z,10.10
2018-10-02T18:19:34.421Z,10.10
2018-10-02T18:22:03.078Z,10.10
2018-10-02T18:24:31.741Z,10.10
2018-10-02T18:27:00.352Z,10.10
2018-10-02T18:29:28.959Z,10.10
2018-10-02T18:31:57.553Z,10.10
2018-10-02T18:34:26.243Z,10.10
2018-10-02T18:36:54.810Z,10.10
2018-10-02T18:39:23.382Z,10.20
2018-10-02T18:41:51.998Z,10.20
2018-10-02T18:44:20.642Z,10.20
2018-10-02T18:46:49.257Z,10.10
2018-10-02T18:49:18.567Z,10.10
2018-10-02T18:51:47.237Z,10.20
2018-10-02T18:54:15.994Z,10.30
2018-10-02T18:56:44.725Z,10.30
2018-10-02T18:59:13.321Z,10.30
2018-10-02T19:01:41.977Z,10.40
2018-10-02T19:04:10.625Z,10.40
2018-10-02T19:06:39.391Z,10.50
2018-10-02T19:09:15.086Z,10.50
2018-10-02T19:11:48.947Z,10.50
2018-10-02T19:14:18.410Z,10.50
2018-10-02T19:16:47.103Z,10.50
2018-10-02T19:19:21.035Z,10.40
2018-10-02T19:21:49.849Z,10.50
2018-10-02T19:24:18.659Z,10.50
2018-10-02T19:26:47.228Z,10.50
2018-10-02T19:29:15.792Z,10.50
2018-10-02T19:31:49.743Z,10.50
2018-10-02T19:34:18.361Z,10.40
2018-10-02T19:36:47.185Z,10.50
2018-10-02T19:39:18.891Z,10.50
2018-10-02T19:41:47.728Z,10.40
2018-10-02T19:44:16.258Z,10.50
2018-10-02T19:46:48.289Z,10.50
2018-10-02T19:49:19.008Z,10.40
2018-10-02T19:51:53.311Z,10.40
2018-10-02T19:54:23.015Z,10.40
2018-10-02T19:56:51.885Z,10.40
2018-10-02T19:59:20.725Z,10.40
2018-10-02T20:01:49.410Z,10.40
2018-10-02T20:04:18.060Z,10.30
2018-10-02T20:06:46.620Z,10.40
2018-10-02T20:09:15.233Z,10.40
2018-10-02T20:11:43.876Z,10.50
2018-10-02T20:14:12.886Z,10.60
2018-10-02T20:16:41.556Z,10.60
2018-10-02T20:19:10.195Z,10.60
2018-10-02T20:21:39.107Z,10.60
2018-10-02T20:24:08.014Z,10.60
2018-10-02T20:26:36.517Z,10.60
2018-10-02T20:29:05.270Z,10.60
2018-10-02T20:31:36.418Z,10.50
2018-10-02T20:34:04.984Z,10.50
2018-10-02T20:36:33.582Z,10.50
2018-10-02T20:39:02.333Z,10.60
2018-10-02T20:41:30.980Z,10.50
2018-10-02T20:43:59.627Z,10.50
2018-10-02T20:46:28.198Z,10.50
2018-10-02T20:48:56.947Z,10.50
2018-10-02T20:51:25.534Z,10.60
2018-10-02T20:53:54.368Z,10.70
2018-10-02T20:56:23.001Z,10.70
2018-10-02T20:58:51.639Z,10.70
2018-10-02T21:01:20.228Z,10.70
2018-10-02T21:03:48.710Z,10.80
2018-10-02T21:06:17.241Z,10.80
2018-10-02T21:08:45.822Z,10.80
2018-10-02T21:11:14.420Z,10.90
2018-10-02T21:13:42.922Z,10.90
2018-10-02T21:16:11.452Z,10.90
2018-10-02T21:18:40.895Z,10.90
2018-10-02T21:21:09.402Z,10.90
2018-10-02T21:23:37.978Z,10.90
2018-10-02T21:26:06.578Z,11.00
2018-10-02T21:28:35.137Z,10.90
2018-10-02T21:31:03.730Z,10.90
2018-10-02T21:33:32.319Z,10.90
2018-10-02T21:36:00.875Z,11.00
2018-10-02T21:38:29.444Z,11.00
2018-10-02T21:40:57.978Z,11.10
2018-10-02T21:43:26.516Z,11.10
2018-10-02T21:45:55.034Z,11.10
2018-10-02T21:48:23.700Z,11.10
2018-10-02T21:50:52.175Z,11.10
2018-10-02T21:53:20.696Z,11.10
2018-10-02T21:55:49.248Z,11.10
2018-10-02T21:58:17.818Z,11.10
2018-10-02T22:00:46.416Z,11.10
2018-10-02T22:03:14.925Z,11.10
2018-10-02T22:05:43.477Z,11.10
2018-10-02T22:08:11.984Z,11.10
2018-10-02T22:10:40.541Z,11.10
2018-10-02T22:13:09.156Z,11.10
2018-10-02T22:15:37.722Z,11.10
2018-10-02T22:18:11.708Z,11.20
2018-10-02T22:20:46.417Z,11.20
2018-10-02T22:23:15.039Z,11.20
2018-10-02T22:25:43.605Z,11.20
2018-10-02T22:28:12.197Z,11.20
2018-10-02T22:30:41.080Z,11.20
2018-10-02T22:33:09.689Z,11.20
2018-10-02T22:35:38.234Z,11.20
2018-10-02T22:38:06.765Z,11.20
2018-10-02T22:40:35.343Z,11.20
2018-10-02T22:43:03.892Z,11.20
2018-10-02T22:45:32.443Z,11.20
2018-10-02T22:48:00.932Z,11.30
2018-10-02T22:50:30.203Z,11.30
2018-10-02T22:52:58.697Z,11.30
2018-10-02T22:55:27.201Z,11.30
2018-10-02T22:57:55.817Z,11.40
2018-10-02T23:00:24.616Z,11.40
2018-10-02T23:02:53.372Z,11.40
2018-10-02T23:05:21.909Z,11.40
2018-10-02T23:07:50.628Z,11.50
2018-10-02T23:10:19.194Z,11.50
2018-10-02T23:12:47.725Z,11.50
2018-10-02T23:15:16.313Z,11.40
2018-10-02T23:17:44.845Z,11.50
2018-10-02T23:20:13.414Z,11.50
2018-10-02T23:22:41.980Z,11.60
2018-10-02T23:25:10.462Z,11.70
2018-10-02T23:27:39.024Z,11.60
2018-10-02T23:30:07.856Z,11.60
2018-10-02T23:32:36.415Z,11.50
2018-10-02T23:35:05.030Z,11.50
2018-10-02T23:37:33.543Z,11.60
2018-10-02T23:40:02.047Z,11.60
2018-10-02T23:42:30.614Z,11.70
2018-10-02T23:44:59.141Z,11.60
2018-10-02T23:47:27.717Z,11.60
2018-10-02T23:49:56.264Z,11.50
2018-10-02T23:52:24.825Z,11.60
2018-10-02T23:54:53.291Z,11.60
2018-10-02T23:57:21.857Z,11.60
2018-10-02T23:59:50.387Z,11.50
